Time;durP1;ratioP1;P1;durP2;ratioP2;P2;SDS_P1;SDS_P2;PMS_P1;PMS_P2;Temp;Humidity;BMP_temperature;BMP_pressure;BME280_temperature;BME280_humidity;BME280_pressure;Samples;Min_cycle;Max_cycle;Signal;HPM_P1;HPM_P2
2023/11/03 00:00:00;;;;;;;1.20;1.10;;;8.90;99.90;;;;;;5052905;28;20192;-86
2023/11/03 00:02:26;;;;;;;3.13;1.15;;;8.80;99.90;;;;;;5047466;28;20186;-85
2023/11/03 00:04:52;;;;;;;3.20;1.10;;;9.30;99.90;;;;;;5066882;28;20212;-85
2023/11/03 00:07:18;;;;;;;2.00;1.33;;;8.70;99.90;;;;;;5064468;28;20666;-85
2023/11/03 00:09:45;;;;;;;1.55;0.98;;;8.70;99.90;;;;;;5065288;28;20418;-85
2023/11/03 00:12:10;;;;;;;1.40;1.10;;;8.30;99.90;;;;;;5047673;28;20182;-85
2023/11/03 00:14:36;;;;;;;1.80;1.00;;;8.70;99.90;;;;;;5065134;28;20202;-86
2023/11/03 00:17:02;;;;;;;1.90;1.27;;;8.30;99.90;;;;;;5060200;28;20460;-85
2023/11/03 00:19:28;;;;;;;2.60;1.20;;;9.00;99.90;;;;;;5046713;28;20189;-86
2023/11/03 00:21:54;;;;;;;1.77;1.30;;;8.50;99.90;;;;;;5062032;28;20178;-88
2023/11/03 00:24:20;;;;;;;2.00;1.60;;;8.60;99.90;;;;;;5056121;28;20205;-89
2023/11/03 00:26:47;;;;;;;1.70;1.10;;;8.40;99.90;;;;;;5046204;28;20270;-88
2023/11/03 00:29:15;;;;;;;2.00;1.15;;;7.80;99.90;;;;;;5049918;28;20953;-87
2023/11/03 00:31:45;;;;;;;1.27;1.08;;;8.60;99.90;;;;;;5071404;28;20192;-91
2023/11/03 00:34:15;;;;;;;3.03;1.60;;;8.40;99.90;;;;;;5074353;28;20213;-89
2023/11/03 00:36:47;;;;;;;1.90;1.08;;;8.10;99.90;;;;;;5069405;28;20213;-88
2023/11/03 00:39:14;;;;;;;2.17;1.30;;;7.40;99.90;;;;;;5074013;28;20206;-91
2023/11/03 00:41:43;;;;;;;2.92;1.10;;;7.80;99.90;;;;;;5070089;28;20730;-88
2023/11/03 00:44:11;;;;;;;3.08;1.00;;;8.00;99.90;;;;;;5052014;28;20198;-88
2023/11/03 00:46:38;;;;;;;1.63;1.20;;;7.80;99.90;;;;;;5069686;28;20186;-88
2023/11/03 00:49:04;;;;;;;1.80;1.15;;;7.80;99.90;;;;;;5069986;28;20188;-87
2023/11/03 00:51:30;;;;;;;1.92;1.05;;;7.70;99.90;;;;;;5054165;28;20567;-87
2023/11/03 00:53:56;;;;;;;3.07;1.60;;;7.90;99.90;;;;;;5051370;28;20288;-88
2023/11/03 00:56:22;;;;;;;2.25;1.08;;;7.70;99.90;;;;;;5058433;28;20233;-88
2023/11/03 00:58:48;;;;;;;5.63;1.70;;;7.80;99.90;;;;;;5055700;28;20208;-88
2023/11/03 01:01:14;;;;;;;5.30;1.00;;;8.10;99.90;;;;;;5071382;28;20193;-88
2023/11/03 01:03:40;;;;;;;1.77;1.15;;;8.10;99.90;;;;;;5049873;28;20450;-87
2023/11/03 01:06:07;;;;;;;1.80;1.17;;;7.80;99.90;;;;;;5065137;28;20272;-87
2023/11/03 01:08:33;;;;;;;1.30;1.13;;;7.90;99.90;;;;;;5068869;28;20333;-87
2023/11/03 01:10:59;;;;;;;3.63;1.57;;;7.50;99.90;;;;;;5055496;28;20679;-87
2023/11/03 01:13:27;;;;;;;5.60;1.23;;;7.50;99.90;;;;;;5046507;28;20541;-87
2023/11/03 01:15:52;;;;;;;2.92;1.38;;;7.70;99.90;;;;;;5071117;28;20186;-89
2023/11/03 01:18:18;;;;;;;3.63;1.10;;;7.40;99.90;;;;;;5057837;28;20193;-88
2023/11/03 01:20:43;;;;;;;2.60;1.40;;;7.00;99.90;;;;;;5068715;28;20186;-85
2023/11/03 01:23:10;;;;;;;2.80;1.10;;;7.50;99.90;;;;;;5055100;28;20216;-87
2023/11/03 01:25:35;;;;;;;3.70;1.30;;;7.70;99.90;;;;;;5060113;28;20178;-86
2023/11/03 01:28:01;;;;;;;5.30;1.20;;;6.90;99.90;;;;;;5056092;28;20181;-86
2023/11/03 01:30:27;;;;;;;1.20;1.00;;;6.90;99.90;;;;;;5058009;28;20178;-87
2023/11/03 01:32:53;;;;;;;8.43;1.47;;;7.70;99.90;;;;;;5059909;28;20201;-87
2023/11/03 01:35:20;;;;;;;2.37;1.40;;;7.50;99.90;;;;;;5073505;28;20189;-88
2023/11/03 01:37:45;;;;;;;4.43;1.40;;;7.60;99.90;;;;;;5074585;28;20221;-87
2023/11/03 01:40:14;;;;;;;4.80;1.37;;;7.40;99.90;;;;;;5058230;28;20185;-88
2023/11/03 01:42:40;;;;;;;4.22;1.45;;;7.50;99.90;;;;;;5056854;28;20575;-88
2023/11/03 01:45:07;;;;;;;3.28;1.83;;;7.30;99.90;;;;;;5056670;28;20177;-87
2023/11/03 01:47:32;;;;;;;3.75;1.42;;;7.50;99.90;;;;;;5057285;28;20235;-87
2023/11/03 01:49:59;;;;;;;1.60;1.30;;;7.70;99.90;;;;;;5072790;28;20190;-88
2023/11/03 01:52:26;;;;;;;2.55;1.70;;;7.40;99.90;;;;;;5061554;28;20185;-86
2023/11/03 01:54:52;;;;;;;1.80;1.33;;;7.30;99.90;;;;;;5056814;28;20269;-87
2023/11/03 01:57:18;;;;;;;2.55;1.65;;;7.40;99.90;;;;;;5071391;28;20308;-87
2023/11/03 01:59:49;;;;;;;2.05;1.85;;;7.60;99.90;;;;;;5067849;28;20646;-87
2023/11/03 02:02:15;;;;;;;3.05;1.10;;;7.30;99.90;;;;;;5073245;28;20186;-87
2023/11/03 02:04:41;;;;;;;1.30;1.15;;;7.20;99.90;;;;;;5060444;28;20200;-87
2023/11/03 02:07:07;;;;;;;3.43;1.30;;;7.30;99.90;;;;;;5069683;28;20193;-87
2023/11/03 02:09:33;;;;;;;3.30;1.60;;;7.50;99.90;;;;;;5053239;28;20319;-87
2023/11/03 02:11:58;;;;;;;3.15;1.20;;;7.60;99.90;;;;;;5070751;28;20213;-87
2023/11/03 02:14:24;;;;;;;3.33;1.47;;;7.30;99.90;;;;;;5052721;28;20693;-87
2023/11/03 02:16:50;;;;;;;3.63;1.10;;;7.00;99.90;;;;;;5054055;28;20846;-86
2023/11/03 02:19:16;;;;;;;3.10;1.40;;;7.70;99.90;;;;;;5068998;28;20194;-86
2023/11/03 02:21:43;;;;;;;4.00;2.10;;;7.00;99.90;;;;;;5063738;28;20189;-87
2023/11/03 02:24:09;;;;;;;3.72;1.20;;;7.20;99.90;;;;;;5065073;28;20232;-87
2023/11/03 02:26:37;;;;;;;1.75;1.35;;;7.30;99.90;;;;;;5053057;28;20181;-87
2023/11/03 02:29:03;;;;;;;3.20;1.40;;;7.30;99.90;;;;;;5071992;28;20209;-86
2023/11/03 02:31:30;;;;;;;3.65;1.80;;;7.60;99.90;;;;;;5054918;28;20181;-86
2023/11/03 02:33:56;;;;;;;3.70;1.10;;;7.70;99.90;;;;;;5067405;28;20265;-87
2023/11/03 02:36:23;;;;;;;1.73;1.20;;;7.70;99.90;;;;;;5054723;28;20241;-87
2023/11/03 02:38:50;;;;;;;3.40;1.30;;;7.20;99.90;;;;;;5062954;28;21093;-87
2023/11/03 02:41:15;;;;;;;4.10;1.30;;;7.80;99.90;;;;;;5066992;28;20235;-87
2023/11/03 02:43:41;;;;;;;2.27;1.40;;;7.70;99.90;;;;;;5048718;28;20201;-87
2023/11/03 02:46:07;;;;;;;1.87;1.30;;;7.80;99.90;;;;;;5061974;28;20256;-87
2023/11/03 02:48:33;;;;;;;3.25;1.40;;;7.50;99.90;;;;;;5065260;28;20181;-87
2023/11/03 02:50:59;;;;;;;2.05;1.40;;;7.40;99.90;;;;;;5067535;28;20178;-88
2023/11/03 02:53:25;;;;;;;5.30;1.30;;;7.40;99.90;;;;;;5056160;28;20534;-86
2023/11/03 02:55:51;;;;;;;6.37;1.93;;;7.70;99.90;;;;;;5049656;28;20592;-87
2023/11/03 02:58:16;;;;;;;2.40;1.43;;;7.00;99.90;;;;;;5053852;28;20498;-87
2023/11/03 03:00:43;;;;;;;2.13;1.30;;;6.90;99.90;;;;;;5069964;28;20431;-88
2023/11/03 03:03:09;;;;;;;1.20;1.00;;;7.50;99.90;;;;;;5064688;28;20230;-86
2023/11/03 03:05:38;;;;;;;3.80;1.38;;;7.80;99.90;;;;;;5065971;28;20761;-88
2023/11/03 03:08:04;;;;;;;3.72;1.63;;;7.40;99.90;;;;;;5064847;28;20182;-88
2023/11/03 03:10:30;;;;;;;3.75;1.38;;;7.00;99.90;;;;;;5066920;28;20216;-88
2023/11/03 03:12:56;;;;;;;2.83;1.23;;;6.90;99.90;;;;;;5064843;28;20190;-86
2023/11/03 03:15:22;;;;;;;2.30;1.10;;;6.60;99.90;;;;;;5070923;28;20505;-86
2023/11/03 03:17:48;;;;;;;2.95;1.90;;;7.30;99.90;;;;;;5056286;28;20571;-88
2023/11/03 03:20:14;;;;;;;1.83;1.13;;;7.50;99.90;;;;;;5061140;28;20186;-86
2023/11/03 03:22:39;;;;;;;4.70;1.20;;;7.30;99.90;;;;;;5067820;28;20440;-87
2023/11/03 03:25:06;;;;;;;3.33;1.70;;;6.60;99.90;;;;;;5066584;28;20591;-87
2023/11/03 03:27:31;;;;;;;4.30;1.45;;;7.10;99.90;;;;;;5052184;28;20268;-87
2023/11/03 03:29:57;;;;;;;3.53;1.17;;;7.50;99.90;;;;;;5067755;28;20273;-87
2023/11/03 03:32:22;;;;;;;2.67;1.10;;;7.20;99.90;;;;;;5059127;28;20178;-87
2023/11/03 03:34:48;;;;;;;3.10;1.17;;;;;;;;;;5070052;22;20201;-91
2023/11/03 03:37:14;;;;;;;3.53;1.23;;;7.30;99.90;;;;;;5062146;28;20238;-89
2023/11/03 03:39:39;;;;;;;4.30;1.50;;;7.40;99.90;;;;;;5060012;28;20192;-89
2023/11/03 03:42:06;;;;;;;1.67;1.40;;;7.30;99.90;;;;;;5062578;28;20196;-89
2023/11/03 03:44:35;;;;;;;2.60;1.40;;;7.70;99.90;;;;;;5039326;28;20275;-89
2023/11/03 03:47:00;;;;;;;1.75;0.90;;;7.20;99.90;;;;;;5040320;28;20186;-90
2023/11/03 03:49:26;;;;;;;2.07;1.17;;;7.60;99.90;;;;;;5013397;28;20232;-90
2023/11/03 03:51:52;;;;;;;2.50;1.33;;;7.40;99.90;;;;;;5012369;28;20193;-89
2023/11/03 03:54:17;;;;;;;2.30;1.30;;;7.30;99.90;;;;;;5016494;28;20601;-90
2023/11/03 03:56:43;;;;;;;2.47;1.50;;;7.30;99.90;;;;;;5025190;28;20256;-90
2023/11/03 03:59:08;;;;;;;3.00;1.50;;;7.30;99.90;;;;;;5013281;28;20185;-90
2023/11/03 04:01:34;;;;;;;4.60;1.40;;;7.50;99.90;;;;;;5013331;28;20225;-87
2023/11/03 04:03:59;;;;;;;1.60;1.20;;;7.80;99.90;;;;;;5013426;28;20204;-87
2023/11/03 04:06:25;;;;;;;6.30;1.37;;;7.30;99.90;;;;;;5015515;28;20722;-87
2023/11/03 04:08:50;;;;;;;3.00;1.30;;;7.40;99.90;;;;;;5013889;28;20190;-87
2023/11/03 04:11:16;;;;;;;1.70;1.20;;;7.50;99.90;;;;;;5041700;28;20542;-87
2023/11/03 04:13:41;;;;;;;3.07;1.23;;;7.80;99.90;;;;;;5035466;28;20202;-87
2023/11/03 04:16:08;;;;;;;3.43;1.30;;;7.80;99.90;;;;;;5039572;28;20202;-87
2023/11/03 04:18:34;;;;;;;3.85;1.30;;;7.80;99.90;;;;;;5013720;28;20244;-87
2023/11/03 04:20:59;;;;;;;4.13;1.60;;;7.60;99.90;;;;;;5027651;28;20663;-86
2023/11/03 04:23:25;;;;;;;4.83;1.67;;;8.10;99.90;;;;;;5013397;28;20547;-87
2023/11/03 04:25:53;;;;;;;4.77;1.50;;;8.00;99.90;;;;;;5010471;28;20182;-87
2023/11/03 04:28:19;;;;;;;2.60;1.45;;;8.20;99.90;;;;;;5016593;28;20252;-87
2023/11/03 04:30:45;;;;;;;4.70;2.10;;;8.20;99.90;;;;;;5009695;28;20193;-87
2023/11/03 04:33:14;;;;;;;1.33;1.20;;;7.90;99.90;;;;;;5041157;28;20198;-87
2023/11/03 04:35:40;;;;;;;4.45;1.00;;;7.90;99.90;;;;;;5036623;28;20439;-87
2023/11/03 04:38:06;;;;;;;2.70;1.20;;;8.10;99.90;;;;;;5019130;28;20280;-87
2023/11/03 04:40:31;;;;;;;3.83;1.87;;;8.10;99.90;;;;;;5009786;28;20308;-87
2023/11/03 04:42:57;;;;;;;4.00;1.60;;;8.00;99.90;;;;;;5011189;28;20210;-87
2023/11/03 04:45:25;;;;;;;1.93;1.10;;;8.20;99.90;;;;;;5013772;28;20597;-87
2023/11/03 04:47:51;;;;;;;2.97;1.60;;;8.00;99.90;;;;;;5035877;28;20252;-87
2023/11/03 04:50:16;;;;;;;2.77;1.23;;;8.00;99.90;;;;;;5034821;28;20668;-87
2023/11/03 04:52:42;;;;;;;2.33;1.50;;;8.20;99.90;;;;;;5033373;28;20198;-88
2023/11/03 04:55:08;;;;;;;3.93;1.40;;;8.20;99.90;;;;;;5032190;28;20652;-87
2023/11/03 04:57:37;;;;;;;4.03;1.40;;;8.10;99.90;;;;;;5027979;28;20206;-88
2023/11/03 05:00:09;;;;;;;2.17;1.25;;;8.50;99.90;;;;;;5013039;28;20415;-89
2023/11/03 05:02:38;;;;;;;2.28;0.93;;;8.00;99.90;;;;;;5009870;28;20198;-89
2023/11/03 05:05:04;;;;;;;6.68;1.45;;;8.30;99.90;;;;;;5031125;28;20175;-90
2023/11/03 05:07:32;;;;;;;2.45;1.20;;;8.10;99.90;;;;;;5015156;28;20797;-88
2023/11/03 05:09:58;;;;;;;3.92;1.85;;;8.00;99.90;;;;;;4998641;28;20202;-90
2023/11/03 05:12:23;;;;;;;2.83;1.40;;;8.10;99.90;;;;;;4999508;28;20245;-88
2023/11/03 05:14:50;;;;;;;3.17;1.20;;;8.00;99.90;;;;;;5028500;28;20186;-90
2023/11/03 05:17:15;;;;;;;2.70;1.30;;;8.50;99.90;;;;;;5029792;28;20212;-90
2023/11/03 05:19:41;;;;;;;2.30;1.33;;;8.20;99.90;;;;;;5021985;28;20261;-90
2023/11/03 05:22:07;;;;;;;2.07;1.30;;;8.60;99.90;;;;;;5012052;28;20233;-90
2023/11/03 05:24:32;;;;;;;2.30;1.80;;;8.10;99.90;;;;;;5010273;28;20233;-90
2023/11/03 05:26:58;;;;;;;3.73;1.53;;;8.30;99.90;;;;;;5018290;28;20220;-90
2023/11/03 05:29:24;;;;;;;2.30;1.53;;;;;;;;;;5032283;28;20640;-88
2023/11/03 05:31:50;;;;;;;3.28;1.50;;;8.30;99.90;;;;;;5012995;28;20212;-89
2023/11/03 05:34:15;;;;;;;1.95;1.30;;;8.40;99.90;;;;;;5016314;28;20206;-90
2023/11/03 05:36:41;;;;;;;3.17;1.50;;;8.80;99.90;;;;;;5038134;28;20260;-90
2023/11/03 05:39:08;;;;;;;1.70;1.37;;;8.70;99.90;;;;;;5047426;28;20194;-89
2023/11/03 05:41:34;;;;;;;1.45;1.30;;;8.40;99.90;;;;;;5052118;28;20198;-90
2023/11/03 05:43:59;;;;;;;3.27;1.70;;;8.50;99.90;;;;;;5031856;28;20218;-90
2023/11/03 05:46:25;;;;;;;3.70;1.47;;;8.80;99.90;;;;;;5017299;28;20424;-90
2023/11/03 05:48:52;;;;;;;3.03;1.60;;;8.30;99.90;;;;;;5028478;28;20182;-90
2023/11/03 05:51:21;;;;;;;4.88;1.65;;;9.10;99.90;;;;;;5030687;28;20650;-90
2023/11/03 05:53:47;;;;;;;3.55;1.50;;;8.70;99.90;;;;;;5015045;28;20215;-90
2023/11/03 05:56:13;;;;;;;2.17;1.08;;;9.10;99.90;;;;;;5031500;28;20257;-90
2023/11/03 05:58:38;;;;;;;1.50;1.17;;;9.20;99.90;;;;;;5015090;28;20176;-90
2023/11/03 06:01:06;;;;;;;1.80;1.20;;;9.20;99.90;;;;;;5018176;28;20236;-90
2023/11/03 06:03:31;;;;;;;2.92;1.10;;;9.10;99.90;;;;;;5032510;28;20229;-90
2023/11/03 06:05:57;;;;;;;2.50;1.10;;;9.10;99.90;;;;;;5016679;28;20222;-90
2023/11/03 06:08:22;;;;;;;3.27;1.10;;;8.90;99.90;;;;;;5024429;28;20270;-90
2023/11/03 06:10:50;;;;;;;2.70;1.20;;;8.90;99.90;;;;;;5030311;28;20694;-87
2023/11/03 06:13:16;;;;;;;2.40;1.30;;;9.00;99.90;;;;;;5015700;28;20290;-86
2023/11/03 06:15:42;;;;;;;4.32;1.30;;;9.00;99.90;;;;;;5036366;28;20178;-86
2023/11/03 06:18:07;;;;;;;4.20;1.40;;;9.00;99.90;;;;;;5030426;28;20207;-86
2023/11/03 06:20:33;;;;;;;3.43;1.10;;;9.50;99.90;;;;;;5017973;28;20413;-86
2023/11/03 06:22:59;;;;;;;2.83;1.80;;;8.90;99.90;;;;;;5033226;28;20198;-87
2023/11/03 06:25:24;;;;;;;1.63;1.00;;;9.30;99.90;;;;;;5031143;28;20186;-87
2023/11/03 06:27:50;;;;;;;1.53;1.43;;;8.90;99.90;;;;;;5013390;28;20197;-85
2023/11/03 06:30:16;;;;;;;2.90;1.70;;;9.20;99.90;;;;;;5011263;28;20677;-85
2023/11/03 06:32:41;;;;;;;1.50;1.20;;;8.80;99.90;;;;;;5016074;28;20638;-86
2023/11/03 06:35:07;;;;;;;3.00;1.83;;;8.90;99.90;;;;;;5032301;28;20202;-87
2023/11/03 06:37:32;;;;;;;2.07;1.37;;;8.80;99.90;;;;;;5026689;28;20265;-87
2023/11/03 06:39:58;;;;;;;2.13;1.30;;;8.70;99.90;;;;;;5039292;28;20262;-87
2023/11/03 06:42:23;;;;;;;2.67;1.63;;;8.80;99.90;;;;;;5015527;28;20178;-88
2023/11/03 06:44:49;;;;;;;3.97;2.60;;;9.10;99.90;;;;;;5019893;28;20206;-87
2023/11/03 06:47:15;;;;;;;2.37;1.87;;;9.10;99.90;;;;;;5034201;28;20189;-86
2023/11/03 06:49:46;;;;;;;1.40;1.10;;;9.20;99.90;;;;;;5039594;28;20440;-83
2023/11/03 06:52:12;;;;;;;3.47;1.40;;;9.00;99.90;;;;;;5028516;28;20258;-83
2023/11/03 06:54:38;;;;;;;2.50;1.20;;;9.10;99.90;;;;;;5046035;28;20210;-84
2023/11/03 06:57:05;;;;;;;2.70;1.30;;;9.30;99.90;;;;;;5007335;28;20218;-84
2023/11/03 06:59:32;;;;;;;1.58;1.23;;;9.10;99.90;;;;;;5039669;28;20178;-85
2023/11/03 07:01:58;;;;;;;4.07;2.85;;;8.80;99.90;;;;;;5039924;28;20202;-84
2023/11/03 07:04:24;;;;;;;2.10;1.93;;;9.20;99.90;;;;;;5023855;28;20209;-87
2023/11/03 07:06:50;;;;;;;4.05;2.33;;;8.70;99.90;;;;;;5016197;28;20640;-86
2023/11/03 07:09:16;;;;;;;3.70;1.63;;;9.10;99.90;;;;;;5029900;28;20217;-86
2023/11/03 07:11:42;;;;;;;4.70;2.00;;;8.90;99.90;;;;;;5021110;28;20187;-86
2023/11/03 07:14:07;;;;;;;1.77;1.60;;;9.00;99.90;;;;;;5022081;28;21010;-87
2023/11/03 07:16:33;;;;;;;2.53;1.60;;;9.00;99.90;;;;;;5017828;28;20696;-87
2023/11/03 07:19:00;;;;;;;2.40;1.87;;;9.20;99.90;;;;;;5030220;28;20186;-87
2023/11/03 07:21:25;;;;;;;5.20;2.10;;;9.40;99.90;;;;;;5020820;28;20194;-87
2023/11/03 07:23:52;;;;;;;5.90;3.40;;;9.00;99.90;;;;;;5021703;28;20236;-86
2023/11/03 07:26:18;;;;;;;3.35;2.40;;;8.90;99.90;;;;;;5020764;28;20261;-87
2023/11/03 07:28:45;;;;;;;2.60;2.07;;;9.10;99.90;;;;;;5035812;28;20627;-87
2023/11/03 07:31:11;;;;;;;3.65;2.20;;;8.90;99.90;;;;;;5036169;28;20178;-87
2023/11/03 07:33:41;;;;;;;3.93;1.50;;;9.20;99.90;;;;;;5036038;28;20270;-86
2023/11/03 07:36:07;;;;;;;3.03;1.23;;;9.30;99.90;;;;;;5049912;28;20775;-86
2023/11/03 07:38:32;;;;;;;6.18;1.73;;;9.00;99.90;;;;;;5030428;28;20191;-86
2023/11/03 07:40:58;;;;;;;3.80;1.70;;;9.10;99.90;;;;;;5034781;28;20169;-86
2023/11/03 07:43:24;;;;;;;6.03;1.70;;;9.40;99.90;;;;;;5049138;28;20205;-86
2023/11/03 07:45:52;;;;;;;6.43;1.30;;;9.20;99.90;;;;;;5049514;28;20186;-87
2023/11/03 07:48:18;;;;;;;6.28;2.00;;;9.80;99.90;;;;;;5051468;28;20191;-86
2023/11/03 07:50:44;;;;;;;3.87;1.90;;;9.90;99.90;;;;;;5026250;28;20198;-86
2023/11/03 07:53:09;;;;;;;2.20;1.90;;;9.30;99.90;;;;;;5031200;28;20461;-87
2023/11/03 07:55:36;;;;;;;2.57;1.70;;;9.80;99.90;;;;;;5032130;28;20186;-87
2023/11/03 07:58:02;;;;;;;2.00;1.58;;;9.50;99.90;;;;;;5027532;28;20207;-86
2023/11/03 08:00:29;;;;;;;2.47;1.25;;;9.50;99.90;;;;;;5046590;28;20181;-86
2023/11/03 08:02:55;;;;;;;2.70;1.33;;;9.60;99.90;;;;;;5030857;28;20213;-87
2023/11/03 08:05:22;;;;;;;4.73;2.07;;;10.00;99.90;;;;;;5045554;28;20170;-87
2023/11/03 08:07:47;;;;;;;2.53;2.15;;;9.60;99.90;;;;;;5029809;28;20203;-86
2023/11/03 08:10:13;;;;;;;3.70;2.00;;;9.70;99.90;;;;;;5032820;28;20207;-87
2023/11/03 08:12:39;;;;;;;2.07;1.57;;;9.90;99.90;;;;;;5030352;28;20230;-87
2023/11/03 08:15:06;;;;;;;2.80;1.50;;;10.00;99.90;;;;;;5046211;28;20201;-87
2023/11/03 08:17:32;;;;;;;2.72;1.60;;;9.70;99.90;;;;;;5034502;28;20439;-86
2023/11/03 08:19:57;;;;;;;1.43;1.00;;;9.90;99.90;;;;;;5045893;28;20218;-88
2023/11/03 08:22:24;;;;;;;3.03;1.30;;;10.10;99.90;;;;;;5054162;28;20204;-88
2023/11/03 08:24:49;;;;;;;2.88;1.33;;;10.20;99.90;;;;;;5051979;28;20192;-86
2023/11/03 08:27:15;;;;;;;2.13;1.00;;;10.10;99.90;;;;;;5031480;28;20206;-86
2023/11/03 08:29:41;;;;;;;2.80;1.20;;;10.50;99.90;;;;;;5048059;28;20174;-87
2023/11/03 08:32:10;;;;;;;1.37;1.07;;;10.70;99.90;;;;;;5046790;28;20674;-86
2023/11/03 08:34:37;;;;;;;2.92;1.60;;;10.20;99.90;;;;;;5031091;28;20302;-88
2023/11/03 08:37:03;;;;;;;6.18;4.63;;;10.30;99.90;;;;;;5033937;28;20219;-87
2023/11/03 08:39:28;;;;;;;1.55;1.17;;;10.20;99.90;;;;;;5030054;28;20200;-87
2023/11/03 08:41:54;;;;;;;1.77;1.30;;;10.20;99.90;;;;;;5029494;28;20202;-87
2023/11/03 08:44:22;;;;;;;1.75;1.30;;;10.20;99.90;;;;;;5017396;28;20207;-87
2023/11/03 08:46:48;;;;;;;3.10;1.30;;;10.20;99.90;;;;;;5032116;28;20168;-88
2023/11/03 08:49:14;;;;;;;3.70;2.20;;;10.30;99.90;;;;;;5040200;28;20181;-87
2023/11/03 08:51:39;;;;;;;1.30;1.20;;;10.30;99.90;;;;;;5029930;28;20439;-86
2023/11/03 08:54:08;;;;;;;3.60;1.43;;;10.30;99.90;;;;;;5025447;28;20212;-87
2023/11/03 08:56:33;;;;;;;3.78;1.90;;;10.50;99.90;;;;;;5016811;28;20212;-88
2023/11/03 08:58:59;;;;;;;1.63;1.10;;;10.30;99.90;;;;;;5018166;28;20187;-87
2023/11/03 09:01:24;;;;;;;2.70;1.50;;;11.10;99.90;;;;;;5014682;28;20454;-89
2023/11/03 09:03:50;;;;;;;1.57;1.47;;;10.60;99.90;;;;;;5014951;28;20223;-89
2023/11/03 09:06:17;;;;;;;1.90;1.50;;;10.90;99.90;;;;;;5017644;28;20208;-88
2023/11/03 09:08:43;;;;;;;3.53;1.13;;;11.20;99.90;;;;;;5017439;28;20176;-89
2023/11/03 09:11:10;;;;;;;2.60;1.20;;;10.90;99.90;;;;;;5016475;28;20549;-89
2023/11/03 09:13:51;;;;;;;2.05;1.23;;;10.70;99.90;;;;;;5017946;28;20677;-88
2023/11/03 09:16:19;;;;;;;1.90;1.20;;;11.50;99.90;;;;;;5031643;28;20215;-88
2023/11/03 09:18:44;;;;;;;5.13;1.67;;;11.10;99.90;;;;;;5020119;28;20182;-87
2023/11/03 09:21:10;;;;;;;2.20;2.00;;;11.00;99.90;;;;;;5048370;28;20184;-88
2023/11/03 09:23:36;;;;;;;1.10;1.00;;;11.40;99.90;;;;;;5036402;28;20212;-89
2023/11/03 09:26:03;;;;;;;1.55;0.88;;;11.10;99.90;;;;;;5034987;28;20188;-89
2023/11/03 09:28:29;;;;;;;3.45;1.15;;;11.10;99.90;;;;;;5033900;28;20184;-89
2023/11/03 09:30:55;;;;;;;2.93;1.30;;;11.10;99.90;;;;;;5037630;28;20254;-88
2023/11/03 09:33:20;;;;;;;1.93;1.33;;;10.90;99.90;;;;;;5017362;28;20219;-88
2023/11/03 09:35:46;;;;;;;2.90;1.47;;;11.20;99.90;;;;;;5019022;28;20239;-89
2023/11/03 09:38:12;;;;;;;3.20;1.40;;;11.60;99.90;;;;;;5013317;28;20325;-90
2023/11/03 09:40:39;;;;;;;2.75;1.23;;;11.10;99.90;;;;;;5030854;28;20193;-89
2023/11/03 09:43:05;;;;;;;2.78;1.38;;;11.70;99.90;;;;;;5014046;28;20204;-90
2023/11/03 09:45:33;;;;;;;2.63;1.35;;;11.90;99.90;;;;;;5013786;28;20184;-89
2023/11/03 09:47:59;;;;;;;2.75;1.30;;;11.40;99.90;;;;;;5025574;28;20189;-89
2023/11/03 09:50:25;;;;;;;1.38;1.10;;;11.30;99.90;;;;;;5016684;28;20182;-89
2023/11/03 09:52:54;;;;;;;3.47;1.53;;;11.60;99.90;;;;;;5029582;28;20258;-89
2023/11/03 09:55:22;;;;;;;2.70;1.20;;;11.60;99.90;;;;;;5018913;28;20182;-89
2023/11/03 09:57:54;;;;;;;3.40;1.58;;;11.90;99.90;;;;;;5016814;28;20212;-90
2023/11/03 10:00:22;;;;;;;2.75;1.10;;;12.10;99.90;;;;;;5025295;28;20211;-89
2023/11/03 10:02:48;;;;;;;3.15;1.25;;;11.80;99.90;;;;;;5035367;28;20238;-90
2023/11/03 10:05:16;;;;;;;1.67;0.90;;;12.20;99.90;;;;;;5023655;28;20214;-87
2023/11/03 10:07:54;;;;;;;1.98;1.08;;;11.90;99.90;;;;;;5034845;28;20162;-87
2023/11/03 10:10:20;;;;;;;0.98;0.85;;;11.60;99.90;;;;;;5034624;28;20234;-90
2023/11/03 10:12:46;;;;;;;2.03;1.20;;;12.20;99.90;;;;;;5033362;28;20196;-87
2023/11/03 10:15:13;;;;;;;1.45;0.90;;;12.10;99.90;;;;;;5023150;28;20187;-87
2023/11/03 10:17:47;;;;;;;3.08;1.00;;;12.10;99.90;;;;;;5016994;28;20217;-88
2023/11/03 10:20:15;;;;;;;1.60;1.08;;;11.60;99.90;;;;;;5014519;28;20686;-89
2023/11/03 10:22:42;;;;;;;1.55;0.90;;;12.30;99.90;;;;;;5029842;28;20202;-88
2023/11/03 10:25:08;;;;;;;1.80;1.10;;;11.80;99.90;;;;;;5005299;28;21091;-88
2023/11/03 10:27:37;;;;;;;1.38;0.85;;;11.70;99.90;;;;;;5017827;28;20193;-88
2023/11/03 10:30:07;;;;;;;1.15;1.05;;;11.70;99.90;;;;;;5013924;28;20212;-89
2023/11/03 10:32:33;;;;;;;2.75;1.50;;;12.10;99.90;;;;;;5031405;28;20612;-88
2023/11/03 10:35:05;;;;;;;2.70;0.80;;;12.20;99.90;;;;;;5017528;28;20208;-88
2023/11/03 10:37:34;;;;;;;2.25;1.25;;;12.10;99.90;;;;;;5001049;28;20472;-88
2023/11/03 10:40:00;;;;;;;1.65;1.10;;;12.60;99.90;;;;;;5019666;28;20217;-88
2023/11/03 10:42:28;;;;;;;1.40;0.73;;;12.60;99.90;;;;;;5053756;28;20182;-89
2023/11/03 10:44:57;;;;;;;2.25;1.00;;;12.60;99.80;;;;;;5041069;28;20212;-88
2023/11/03 10:47:27;;;;;;;1.30;0.98;;;12.40;99.40;;;;;;5017492;28;20242;-88
2023/11/03 10:50:00;;;;;;;1.23;0.90;;;12.30;99.50;;;;;;5030041;28;20189;-89
2023/11/03 10:52:28;;;;;;;1.73;1.02;;;12.20;99.70;;;;;;5009303;28;20258;-89
2023/11/03 10:55:13;;;;;;;1.40;0.90;;;12.30;99.80;;;;;;5026714;28;20644;-89
2023/11/03 10:57:39;;;;;;;2.45;0.90;;;12.10;99.50;;;;;;5016805;28;20303;-89
2023/11/03 11:00:09;;;;;;;1.30;0.90;;;12.50;99.20;;;;;;5011438;28;20186;-89
2023/11/03 11:02:40;;;;;;;1.42;1.10;;;12.40;98.60;;;;;;5015742;28;20197;-89
2023/11/03 11:05:34;;;;;;;1.58;1.08;;;12.40;98.40;;;;;;5031401;28;20186;-89
2023/11/03 11:08:04;;;;;;;1.52;0.88;;;12.20;99.00;;;;;;5036401;28;20177;-89
2023/11/03 11:10:42;;;;;;;3.30;0.90;;;12.50;99.20;;;;;;5037375;28;20191;-87
2023/11/03 11:13:25;;;;;;;2.05;1.05;;;12.40;98.90;;;;;;5051917;28;20186;-87
2023/11/03 11:15:56;;;;;;;1.15;1.00;;;13.00;99.30;;;;;;5041189;28;20227;-87
2023/11/03 11:18:23;;;;;;;1.00;0.90;;;12.50;98.70;;;;;;5023581;28;20259;-87
2023/11/03 11:20:53;;;;;;;0.88;0.80;;;12.90;99.20;;;;;;5031577;28;20270;-89
2023/11/03 11:23:22;;;;;;;1.52;0.77;;;12.80;98.70;;;;;;5019603;28;20697;-89
2023/11/03 11:25:50;;;;;;;2.90;0.80;;;12.70;98.00;;;;;;5016123;28;20325;-90
2023/11/03 11:28:43;;;;;;;1.95;0.80;;;12.40;97.70;;;;;;5015158;28;20662;-89
2023/11/03 11:31:24;;;;;;;1.77;1.00;;;12.40;98.10;;;;;;5033690;28;20209;-89
2023/11/03 11:34:02;;;;;;;1.13;0.60;;;12.30;98.30;;;;;;5032330;28;20282;-89
2023/11/03 11:36:27;;;;;;;0.70;0.60;;;12.40;97.70;;;;;;5023927;28;20243;-90
2023/11/03 11:39:00;;;;;;;1.83;1.30;;;12.10;97.50;;;;;;5015869;28;20223;-90
2023/11/03 11:41:28;;;;;;;1.65;1.05;;;13.10;98.00;;;;;;5024383;28;20190;-90
2023/11/03 11:43:59;;;;;;;1.20;0.80;;;12.60;97.60;;;;;;5028844;28;20198;-90
2023/11/03 11:46:27;;;;;;;1.00;0.80;;;12.10;97.30;;;;;;5012772;28;20194;-89
2023/11/03 11:48:53;;;;;;;1.27;0.70;;;12.40;97.00;;;;;;4997272;28;20186;-89
2023/11/03 11:51:19;;;;;;;1.02;0.50;;;12.50;96.90;;;;;;5031972;28;20272;-89
2023/11/03 11:53:45;;;;;;;1.80;0.75;;;12.40;96.70;;;;;;5016146;28;20206;-88
2023/11/03 11:56:11;;;;;;;1.63;0.73;;;13.00;96.50;;;;;;5017969;28;20205;-89
2023/11/03 11:58:39;;;;;;;1.10;0.60;;;12.90;96.40;;;;;;5018014;28;20558;-88
2023/11/03 12:01:05;;;;;;;1.02;0.82;;;12.10;96.20;;;;;;5039727;28;20170;-89
2023/11/03 12:03:39;;;;;;;1.47;0.60;;;12.70;96.80;;;;;;5050472;28;20206;-90
2023/11/03 12:06:05;;;;;;;0.90;0.70;;;12.70;96.70;;;;;;5016729;28;20190;-89
2023/11/03 12:08:34;;;;;;;0.80;0.60;;;12.70;97.10;;;;;;5018478;28;20221;-91
2023/11/03 12:11:01;;;;;;;1.55;0.77;;;12.50;96.50;;;;;;5001009;28;20181;-89
2023/11/03 12:13:27;;;;;;;0.70;0.60;;;12.60;96.60;;;;;;5015891;28;20206;-88
2023/11/03 12:15:52;;;;;;;1.00;0.90;;;13.10;96.50;;;;;;5028513;28;20290;-88
2023/11/03 12:18:18;;;;;;;0.70;0.60;;;12.90;96.30;;;;;;5031852;28;20216;-88
2023/11/03 12:21:02;;;;;;;0.90;0.60;;;12.70;96.00;;;;;;5015917;28;20193;-89
2023/11/03 12:23:29;;;;;;;0.90;0.75;;;12.90;95.80;;;;;;5014901;28;20427;-89
2023/11/03 12:25:58;;;;;;;1.88;0.75;;;13.10;96.20;;;;;;5003402;28;20233;-88
2023/11/03 12:28:24;;;;;;;1.02;0.70;;;12.80;95.70;;;;;;5030638;28;20277;-89
2023/11/03 12:30:51;;;;;;;2.08;0.80;;;12.70;96.20;;;;;;5017820;28;20603;-88
2023/11/03 12:33:20;;;;;;;1.33;1.05;;;12.90;96.10;;;;;;5014986;28;20457;-88
2023/11/03 12:35:46;;;;;;;2.17;1.50;;;13.50;95.80;;;;;;5023471;28;20212;-88
2023/11/03 12:38:16;;;;;;;0.90;0.80;;;12.90;95.70;;;;;;5017857;28;20591;-89
2023/11/03 12:40:42;;;;;;;1.20;1.00;;;12.70;95.60;;;;;;5020188;28;20204;-88
2023/11/03 12:43:12;;;;;;;1.40;0.73;;;13.00;96.50;;;;;;5016285;28;20268;-88
2023/11/03 12:45:41;;;;;;;0.93;0.70;;;12.50;96.40;;;;;;5033416;28;20189;-88
2023/11/03 12:48:21;;;;;;;1.00;0.80;;;13.20;96.80;;;;;;5018354;28;20191;-88
2023/11/03 12:50:51;;;;;;;1.42;1.00;;;12.80;96.40;;;;;;5017601;28;20194;-88